sensor_id;sensor_type;location;lat;lon;timestamp;temperature;humidity
43089;DHT22;28709;52.030;5.652;2023-02-03T00:00:31;8.70;99.90
43089;DHT22;28709;52.030;5.652;2023-02-03T00:02:57;8.60;99.90
43089;DHT22;28709;52.030;5.652;2023-02-03T00:05:23;8.70;99.90
43089;DHT22;28709;52.030;5.652;2023-02-03T00:07:49;8.70;99.90
43089;DHT22;28709;52.030;5.652;2023-02-03T00:10:16;8.70;99.90
43089;DHT22;28709;52.030;5.652;2023-02-03T00:12:49;8.70;99.90
43089;DHT22;28709;52.030;5.652;2023-02-03T00:15:15;8.70;99.90
43089;DHT22;28709;52.030;5.652;2023-02-03T00:17:41;8.70;99.90
43089;DHT22;28709;52.030;5.652;2023-02-03T00:20:07;8.80;99.90
43089;DHT22;28709;52.030;5.652;2023-02-03T00:22:33;8.70;99.90
43089;DHT22;28709;52.030;5.652;2023-02-03T00:24:58;8.70;99.90
43089;DHT22;28709;52.030;5.652;2023-02-03T00:27:25;8.70;99.90
43089;DHT22;28709;52.030;5.652;2023-02-03T00:29:51;8.80;99.90
43089;DHT22;28709;52.030;5.652;2023-02-03T00:32:16;8.80;99.90
43089;DHT22;28709;52.030;5.652;2023-02-03T00:34:42;8.80;99.90
43089;DHT22;28709;52.030;5.652;2023-02-03T00:37:08;8.80;99.90
43089;DHT22;28709;52.030;5.652;2023-02-03T00:39:35;8.80;99.90
43089;DHT22;28709;52.030;5.652;2023-02-03T00:42:03;8.80;99.90
43089;DHT22;28709;52.030;5.652;2023-02-03T00:44:28;8.80;99.90
43089;DHT22;28709;52.030;5.652;2023-02-03T00:46:54;8.80;99.90
43089;DHT22;28709;52.030;5.652;2023-02-03T00:49:19;8.80;99.90
43089;DHT22;28709;52.030;5.652;2023-02-03T00:51:45;8.80;99.90
43089;DHT22;28709;52.030;5.652;2023-02-03T00:54:11;8.80;99.90
43089;DHT22;28709;52.030;5.652;2023-02-03T00:56:38;8.80;99.90
43089;DHT22;28709;52.030;5.652;2023-02-03T00:59:04;8.80;99.90
43089;DHT22;28709;52.030;5.652;2023-02-03T01:01:29;8.80;99.90
43089;DHT22;28709;52.030;5.652;2023-02-03T01:03:55;8.80;99.90
43089;DHT22;28709;52.030;5.652;2023-02-03T01:06:21;8.80;99.90
43089;DHT22;28709;52.030;5.652;2023-02-03T01:08:48;8.80;99.90
43089;DHT22;28709;52.030;5.652;2023-02-03T01:11:16;8.80;99.90
43089;DHT22;28709;52.030;5.652;2023-02-03T01:13:43;8.80;99.90
43089;DHT22;28709;52.030;5.652;2023-02-03T01:16:10;8.80;99.90
43089;DHT22;28709;52.030;5.652;2023-02-03T01:18:37;8.80;99.90
43089;DHT22;28709;52.030;5.652;2023-02-03T01:21:15;8.80;99.90
43089;DHT22;28709;52.030;5.652;2023-02-03T01:23:41;8.80;99.90
43089;DHT22;28709;52.030;5.652;2023-02-03T01:26:10;8.80;99.90
43089;DHT22;28709;52.030;5.652;2023-02-03T01:28:36;8.80;99.90
43089;DHT22;28709;52.030;5.652;2023-02-03T01:31:22;8.80;99.90
43089;DHT22;28709;52.030;5.652;2023-02-03T01:33:51;8.80;99.90
43089;DHT22;28709;52.030;5.652;2023-02-03T01:36:20;8.80;99.90
43089;DHT22;28709;52.030;5.652;2023-02-03T01:38:45;8.80;99.90
43089;DHT22;28709;52.030;5.652;2023-02-03T01:41:14;8.80;99.90
43089;DHT22;28709;52.030;5.652;2023-02-03T01:43:43;8.80;99.90
43089;DHT22;28709;52.030;5.652;2023-02-03T01:48:46;8.80;99.90
43089;DHT22;28709;52.030;5.652;2023-02-03T01:51:12;8.80;99.90
43089;DHT22;28709;52.030;5.652;2023-02-03T01:53:38;8.80;99.90
43089;DHT22;28709;52.030;5.652;2023-02-03T01:56:05;8.80;99.90
43089;DHT22;28709;52.030;5.652;2023-02-03T01:58:36;8.80;99.90
43089;DHT22;28709;52.030;5.652;2023-02-03T02:01:03;8.80;99.90
43089;DHT22;28709;52.030;5.652;2023-02-03T02:03:51;8.80;99.90
43089;DHT22;28709;52.030;5.652;2023-02-03T02:06:18;8.80;99.90
43089;DHT22;28709;52.030;5.652;2023-02-03T02:08:46;8.80;99.90
43089;DHT22;28709;52.030;5.652;2023-02-03T02:11:13;8.80;99.90
43089;DHT22;28709;52.030;5.652;2023-02-03T02:13:39;8.80;99.90
43089;DHT22;28709;52.030;5.652;2023-02-03T02:16:21;8.80;99.90
43089;DHT22;28709;52.030;5.652;2023-02-03T02:38:15;8.80;99.90
43089;DHT22;28709;52.030;5.652;2023-02-03T02:41:36;8.80;99.90
43089;DHT22;28709;52.030;5.652;2023-02-03T02:43:53;8.80;99.90
43089;DHT22;28709;52.030;5.652;2023-02-03T02:46:37;8.80;99.90
43089;DHT22;28709;52.030;5.652;2023-02-03T02:51:52;8.80;99.90
43089;DHT22;28709;52.030;5.652;2023-02-03T02:54:22;8.80;99.90
43089;DHT22;28709;52.030;5.652;2023-02-03T02:56:52;8.80;99.90
43089;DHT22;28709;52.030;5.652;2023-02-03T02:59:19;8.80;99.90
43089;DHT22;28709;52.030;5.652;2023-02-03T03:01:47;8.80;99.90
43089;DHT22;28709;52.030;5.652;2023-02-03T03:04:14;8.80;99.90
43089;DHT22;28709;52.030;5.652;2023-02-03T03:06:46;8.80;99.90
43089;DHT22;28709;52.030;5.652;2023-02-03T03:09:17;8.80;99.90
43089;DHT22;28709;52.030;5.652;2023-02-03T03:11:51;8.80;99.90
43089;DHT22;28709;52.030;5.652;2023-02-03T03:14:20;8.80;99.90
43089;DHT22;28709;52.030;5.652;2023-02-03T03:16:53;8.80;99.90
43089;DHT22;28709;52.030;5.652;2023-02-03T03:19:23;8.80;99.90
43089;DHT22;28709;52.030;5.652;2023-02-03T03:21:55;8.80;99.90
43089;DHT22;28709;52.030;5.652;2023-02-03T03:24:27;8.80;99.90
43089;DHT22;28709;52.030;5.652;2023-02-03T03:27:04;8.80;99.90
43089;DHT22;28709;52.030;5.652;2023-02-03T03:32:04;8.70;99.90
43089;DHT22;28709;52.030;5.652;2023-02-03T03:34:31;8.80;99.90
43089;DHT22;28709;52.030;5.652;2023-02-03T03:37:02;8.80;99.90
43089;DHT22;28709;52.030;5.652;2023-02-03T03:44:44;8.80;99.90
43089;DHT22;28709;52.030;5.652;2023-02-03T03:47:27;8.80;99.90
43089;DHT22;28709;52.030;5.652;2023-02-03T03:49:57;8.90;99.90
43089;DHT22;28709;52.030;5.652;2023-02-03T03:52:28;8.80;99.90
43089;DHT22;28709;52.030;5.652;2023-02-03T03:54:56;8.80;99.90
43089;DHT22;28709;52.030;5.652;2023-02-03T03:57:25;8.80;99.90
43089;DHT22;28709;52.030;5.652;2023-02-03T03:59:53;8.80;99.90
43089;DHT22;28709;52.030;5.652;2023-02-03T04:02:20;8.80;99.90
43089;DHT22;28709;52.030;5.652;2023-02-03T04:04:47;8.80;99.90
43089;DHT22;28709;52.030;5.652;2023-02-03T04:07:14;8.90;99.90
43089;DHT22;28709;52.030;5.652;2023-02-03T04:09:40;8.90;99.90
43089;DHT22;28709;52.030;5.652;2023-02-03T04:12:15;8.90;99.90
43089;DHT22;28709;52.030;5.652;2023-02-03T04:14:44;8.90;99.90
43089;DHT22;28709;52.030;5.652;2023-02-03T04:17:10;8.90;99.90
43089;DHT22;28709;52.030;5.652;2023-02-03T04:19:35;8.90;99.90
43089;DHT22;28709;52.030;5.652;2023-02-03T04:22:02;8.90;99.90
43089;DHT22;28709;52.030;5.652;2023-02-03T04:24:28;8.90;99.90
43089;DHT22;28709;52.030;5.652;2023-02-03T04:26:54;8.90;99.90
43089;DHT22;28709;52.030;5.652;2023-02-03T04:29:19;8.90;99.90
43089;DHT22;28709;52.030;5.652;2023-02-03T04:31:45;8.90;99.90
43089;DHT22;28709;52.030;5.652;2023-02-03T04:34:10;8.90;99.90
43089;DHT22;28709;52.030;5.652;2023-02-03T04:36:36;8.90;99.90
43089;DHT22;28709;52.030;5.652;2023-02-03T04:39:02;8.90;99.90
43089;DHT22;28709;52.030;5.652;2023-02-03T04:41:27;8.90;99.90
43089;DHT22;28709;52.030;5.652;2023-02-03T04:43:53;8.90;99.90
43089;DHT22;28709;52.030;5.652;2023-02-03T04:46:19;8.90;99.90
43089;DHT22;28709;52.030;5.652;2023-02-03T04:48:44;8.90;99.90
43089;DHT22;28709;52.030;5.652;2023-02-03T04:51:10;9.00;99.90
43089;DHT22;28709;52.030;5.652;2023-02-03T04:53:36;8.90;99.90
43089;DHT22;28709;52.030;5.652;2023-02-03T04:56:02;9.00;99.90
43089;DHT22;28709;52.030;5.652;2023-02-03T04:58:27;9.00;99.90
43089;DHT22;28709;52.030;5.652;2023-02-03T05:00:53;9.00;99.90
43089;DHT22;28709;52.030;5.652;2023-02-03T05:03:19;9.00;99.90
43089;DHT22;28709;52.030;5.652;2023-02-03T05:05:45;9.00;99.90
43089;DHT22;28709;52.030;5.652;2023-02-03T05:08:11;9.10;99.90
43089;DHT22;28709;52.030;5.652;2023-02-03T05:10:36;9.10;99.90
43089;DHT22;28709;52.030;5.652;2023-02-03T05:13:02;9.10;99.90
43089;DHT22;28709;52.030;5.652;2023-02-03T05:15:28;9.10;99.90
43089;DHT22;28709;52.030;5.652;2023-02-03T05:17:54;9.00;99.90
43089;DHT22;28709;52.030;5.652;2023-02-03T05:20:20;9.10;99.90
43089;DHT22;28709;52.030;5.652;2023-02-03T05:22:46;9.10;99.90
43089;DHT22;28709;52.030;5.652;2023-02-03T05:25:12;9.10;99.90
43089;DHT22;28709;52.030;5.652;2023-02-03T05:27:38;9.10;99.90
43089;DHT22;28709;52.030;5.652;2023-02-03T05:30:05;9.10;99.90
43089;DHT22;28709;52.030;5.652;2023-02-03T05:32:31;9.10;99.90
43089;DHT22;28709;52.030;5.652;2023-02-03T05:34:56;9.10;99.90
43089;DHT22;28709;52.030;5.652;2023-02-03T05:37:22;9.10;99.90
43089;DHT22;28709;52.030;5.652;2023-02-03T05:39:48;9.10;99.90
43089;DHT22;28709;52.030;5.652;2023-02-03T05:42:14;9.10;99.90
43089;DHT22;28709;52.030;5.652;2023-02-03T05:44:39;9.10;99.90
43089;DHT22;28709;52.030;5.652;2023-02-03T05:47:05;9.10;99.90
43089;DHT22;28709;52.030;5.652;2023-02-03T05:49:31;9.10;99.90
43089;DHT22;28709;52.030;5.652;2023-02-03T05:51:57;9.10;99.90
43089;DHT22;28709;52.030;5.652;2023-02-03T05:54:23;9.10;99.90
43089;DHT22;28709;52.030;5.652;2023-02-03T05:56:49;9.10;99.90
43089;DHT22;28709;52.030;5.652;2023-02-03T05:59:14;9.10;99.90
43089;DHT22;28709;52.030;5.652;2023-02-03T06:01:40;9.20;99.90
43089;DHT22;28709;52.030;5.652;2023-02-03T06:04:06;9.20;99.90
43089;DHT22;28709;52.030;5.652;2023-02-03T06:06:32;9.20;99.90
43089;DHT22;28709;52.030;5.652;2023-02-03T06:09:05;9.20;99.90
43089;DHT22;28709;52.030;5.652;2023-02-03T06:11:32;9.20;99.90
43089;DHT22;28709;52.030;5.652;2023-02-03T06:13:58;9.20;99.90
43089;DHT22;28709;52.030;5.652;2023-02-03T06:16:27;9.20;99.90
43089;DHT22;28709;52.030;5.652;2023-02-03T06:18:54;9.20;99.90
43089;DHT22;28709;52.030;5.652;2023-02-03T06:21:24;9.10;99.90
43089;DHT22;28709;52.030;5.652;2023-02-03T06:23:49;9.10;99.90
43089;DHT22;28709;52.030;5.652;2023-02-03T06:26:15;9.10;99.90
43089;DHT22;28709;52.030;5.652;2023-02-03T06:28:40;9.20;99.90
43089;DHT22;28709;52.030;5.652;2023-02-03T06:31:06;9.20;99.90
43089;DHT22;28709;52.030;5.652;2023-02-03T06:33:32;9.20;99.90
43089;DHT22;28709;52.030;5.652;2023-02-03T06:35:58;9.20;99.90
43089;DHT22;28709;52.030;5.652;2023-02-03T06:38:24;9.20;99.90
43089;DHT22;28709;52.030;5.652;2023-02-03T06:40:49;9.30;99.90
43089;DHT22;28709;52.030;5.652;2023-02-03T06:43:15;9.30;99.90
43089;DHT22;28709;52.030;5.652;2023-02-03T06:45:44;9.30;99.90
43089;DHT22;28709;52.030;5.652;2023-02-03T06:48:10;9.30;99.90
43089;DHT22;28709;52.030;5.652;2023-02-03T06:50:36;9.40;99.90
43089;DHT22;28709;52.030;5.652;2023-02-03T06:53:01;9.40;99.90
43089;DHT22;28709;52.030;5.652;2023-02-03T06:55:27;9.40;99.90
43089;DHT22;28709;52.030;5.652;2023-02-03T06:57:52;9.40;99.90
43089;DHT22;28709;52.030;5.652;2023-02-03T07:00:18;9.40;99.90
43089;DHT22;28709;52.030;5.652;2023-02-03T07:02:45;9.40;99.90
43089;DHT22;28709;52.030;5.652;2023-02-03T07:05:17;9.40;99.90
43089;DHT22;28709;52.030;5.652;2023-02-03T07:07:43;9.40;99.90
43089;DHT22;28709;52.030;5.652;2023-02-03T07:10:08;9.40;99.90
43089;DHT22;28709;52.030;5.652;2023-02-03T07:12:34;9.40;99.90
43089;DHT22;28709;52.030;5.652;2023-02-03T07:15:01;9.40;99.90
43089;DHT22;28709;52.030;5.652;2023-02-03T07:17:27;9.40;99.90
43089;DHT22;28709;52.030;5.652;2023-02-03T07:19:53;9.40;99.90
43089;DHT22;28709;52.030;5.652;2023-02-03T07:22:18;9.40;99.90
43089;DHT22;28709;52.030;5.652;2023-02-03T07:24:44;9.50;99.90
43089;DHT22;28709;52.030;5.652;2023-02-03T07:27:10;9.50;99.90
43089;DHT22;28709;52.030;5.652;2023-02-03T07:29:35;9.40;99.90
43089;DHT22;28709;52.030;5.652;2023-02-03T07:32:01;9.40;99.90
43089;DHT22;28709;52.030;5.652;2023-02-03T07:34:27;9.40;99.90
43089;DHT22;28709;52.030;5.652;2023-02-03T07:36:53;9.50;99.90
43089;DHT22;28709;52.030;5.652;2023-02-03T07:39:19;9.50;99.90
43089;DHT22;28709;52.030;5.652;2023-02-03T07:41:44;9.50;99.90
43089;DHT22;28709;52.030;5.652;2023-02-03T07:44:10;9.40;99.90
43089;DHT22;28709;52.030;5.652;2023-02-03T07:46:36;9.50;99.90
43089;DHT22;28709;52.030;5.652;2023-02-03T07:49:05;9.40;99.90
43089;DHT22;28709;52.030;5.652;2023-02-03T07:51:31;9.50;99.90
43089;DHT22;28709;52.030;5.652;2023-02-03T07:53:57;9.50;99.90
43089;DHT22;28709;52.030;5.652;2023-02-03T07:56:22;9.50;99.90
43089;DHT22;28709;52.030;5.652;2023-02-03T07:58:51;9.50;99.90
43089;DHT22;28709;52.030;5.652;2023-02-03T08:01:17;9.50;99.90
43089;DHT22;28709;52.030;5.652;2023-02-03T08:03:43;9.60;99.90
43089;DHT22;28709;52.030;5.652;2023-02-03T08:06:09;9.60;99.90
43089;DHT22;28709;52.030;5.652;2023-02-03T08:08:35;9.60;99.90
43089;DHT22;28709;52.030;5.652;2023-02-03T08:11:01;9.60;99.90
43089;DHT22;28709;52.030;5.652;2023-02-03T08:13:27;9.60;99.90
43089;DHT22;28709;52.030;5.652;2023-02-03T08:15:52;9.60;99.90
43089;DHT22;28709;52.030;5.652;2023-02-03T08:18:18;9.60;99.90
43089;DHT22;28709;52.030;5.652;2023-02-03T08:20:46;9.70;99.90
43089;DHT22;28709;52.030;5.652;2023-02-03T08:23:12;9.70;99.90
43089;DHT22;28709;52.030;5.652;2023-02-03T08:25:38;9.70;99.90
43089;DHT22;28709;52.030;5.652;2023-02-03T08:28:03;9.70;99.90
43089;DHT22;28709;52.030;5.652;2023-02-03T08:30:29;9.80;99.90
43089;DHT22;28709;52.030;5.652;2023-02-03T08:32:55;9.80;99.90
43089;DHT22;28709;52.030;5.652;2023-02-03T08:35:20;9.80;99.90
43089;DHT22;28709;52.030;5.652;2023-02-03T08:37:46;9.80;99.90
43089;DHT22;28709;52.030;5.652;2023-02-03T08:40:12;9.80;99.90
43089;DHT22;28709;52.030;5.652;2023-02-03T08:42:37;9.90;99.90
43089;DHT22;28709;52.030;5.652;2023-02-03T08:45:03;9.90;99.90
43089;DHT22;28709;52.030;5.652;2023-02-03T08:47:29;9.90;99.90
43089;DHT22;28709;52.030;5.652;2023-02-03T08:49:55;9.90;99.90
43089;DHT22;28709;52.030;5.652;2023-02-03T08:52:21;9.90;99.90
43089;DHT22;28709;52.030;5.652;2023-02-03T08:54:47;9.90;99.90
43089;DHT22;28709;52.030;5.652;2023-02-03T08:57:13;10.00;99.90
43089;DHT22;28709;52.030;5.652;2023-02-03T08:59:40;10.00;99.90
43089;DHT22;28709;52.030;5.652;2023-02-03T09:02:10;10.00;99.90
43089;DHT22;28709;52.030;5.652;2023-02-03T09:04:36;10.00;99.90
43089;DHT22;28709;52.030;5.652;2023-02-03T09:07:02;10.00;99.90
43089;DHT22;28709;52.030;5.652;2023-02-03T09:09:29;10.00;99.90
43089;DHT22;28709;52.030;5.652;2023-02-03T09:11:55;10.00;99.90
43089;DHT22;28709;52.030;5.652;2023-02-03T09:14:29;10.10;99.90
43089;DHT22;28709;52.030;5.652;2023-02-03T09:16:56;10.10;99.90
43089;DHT22;28709;52.030;5.652;2023-02-03T09:19:21;10.20;99.90
43089;DHT22;28709;52.030;5.652;2023-02-03T09:21:47;10.20;99.90
43089;DHT22;28709;52.030;5.652;2023-02-03T09:24:14;10.10;99.90
43089;DHT22;28709;52.030;5.652;2023-02-03T09:26:40;10.20;99.90
43089;DHT22;28709;52.030;5.652;2023-02-03T09:29:05;10.30;99.90
43089;DHT22;28709;52.030;5.652;2023-02-03T09:31:32;10.30;99.90
43089;DHT22;28709;52.030;5.652;2023-02-03T09:33:58;10.40;99.90
43089;DHT22;28709;52.030;5.652;2023-02-03T09:36:24;10.50;99.90
43089;DHT22;28709;52.030;5.652;2023-02-03T09:38:50;10.50;99.90
43089;DHT22;28709;52.030;5.652;2023-02-03T09:41:56;10.60;99.90
43089;DHT22;28709;52.030;5.652;2023-02-03T09:47:26;10.70;99.90
43089;DHT22;28709;52.030;5.652;2023-02-03T09:50:00;10.70;99.90
43089;DHT22;28709;52.030;5.652;2023-02-03T09:52:33;10.70;99.90
43089;DHT22;28709;52.030;5.652;2023-02-03T09:55:03;10.70;99.90
43089;DHT22;28709;52.030;5.652;2023-02-03T09:57:34;10.70;99.90
43089;DHT22;28709;52.030;5.652;2023-02-03T10:00:13;10.70;99.90
43089;DHT22;28709;52.030;5.652;2023-02-03T10:03:24;10.70;99.90
43089;DHT22;28709;52.030;5.652;2023-02-03T10:11:53;10.70;99.90
43089;DHT22;28709;52.030;5.652;2023-02-03T10:17:33;10.80;99.90
43089;DHT22;28709;52.030;5.652;2023-02-03T10:20:22;10.80;99.90
43089;DHT22;28709;52.030;5.652;2023-02-03T10:22:57;10.70;99.90
43089;DHT22;28709;52.030;5.652;2023-02-03T10:25:43;10.70;99.90
43089;DHT22;28709;52.030;5.652;2023-02-03T10:28:18;10.80;99.90
43089;DHT22;28709;52.030;5.652;2023-02-03T10:30:48;10.80;99.90
43089;DHT22;28709;52.030;5.652;2023-02-03T10:33:18;10.80;99.90
43089;DHT22;28709;52.030;5.652;2023-02-03T10:35:48;10.80;99.90
43089;DHT22;28709;52.030;5.652;2023-02-03T10:41:05;10.90;99.90
43089;DHT22;28709;52.030;5.652;2023-02-03T10:43:31;10.90;99.90
43089;DHT22;28709;52.030;5.652;2023-02-03T10:46:13;10.90;99.90
43089;DHT22;28709;52.030;5.652;2023-02-03T10:48:39;10.90;99.90
43089;DHT22;28709;52.030;5.652;2023-02-03T10:51:16;10.90;99.90
43089;DHT22;28709;52.030;5.652;2023-02-03T10:53:43;10.90;99.90
43089;DHT22;28709;52.030;5.652;2023-02-03T10:56:15;10.90;99.90
43089;DHT22;28709;52.030;5.652;2023-02-03T10:58:52;10.90;99.90
43089;DHT22;28709;52.030;5.652;2023-02-03T11:01:22;10.90;99.90
43089;DHT22;28709;52.030;5.652;2023-02-03T11:04:02;10.90;99.90
43089;DHT22;28709;52.030;5.652;2023-02-03T11:06:33;10.90;99.90
43089;DHT22;28709;52.030;5.652;2023-02-03T11:09:00;10.90;99.90
43089;DHT22;28709;52.030;5.652;2023-02-03T11:11:30;11.00;99.90
43089;DHT22;28709;52.030;5.652;2023-02-03T11:16:32;11.00;99.90
43089;DHT22;28709;52.030;5.652;2023-02-03T11:19:06;11.00;99.90
43089;DHT22;28709;52.030;5.652;2023-02-03T11:26:56;11.00;99.90
43089;DHT22;28709;52.030;5.652;2023-02-03T11:29:27;11.10;99.90
43089;DHT22;28709;52.030;5.652;2023-02-03T11:31:55;11.00;99.90
43089;DHT22;28709;52.030;5.652;2023-02-03T11:34:35;11.00;99.90
43089;DHT22;28709;52.030;5.652;2023-02-03T11:39:55;11.10;99.90
43089;DHT22;28709;52.030;5.652;2023-02-03T11:42:23;11.10;99.90
43089;DHT22;28709;52.030;5.652;2023-02-03T11:44:49;11.20;99.90
43089;DHT22;28709;52.030;5.652;2023-02-03T11:47:16;11.20;99.90
43089;DHT22;28709;52.030;5.652;2023-02-03T11:50:25;11.20;99.90
43089;DHT22;28709;52.030;5.652;2023-02-03T11:58:50;11.20;99.90
43089;DHT22;28709;52.030;5.652;2023-02-03T12:09:24;11.10;99.90
43089;DHT22;28709;52.030;5.652;2023-02-03T12:15:31;11.00;99.90
43089;DHT22;28709;52.030;5.652;2023-02-03T12:31:22;10.80;99.90
43089;DHT22;28709;52.030;5.652;2023-02-03T12:33:59;10.70;99.90
43089;DHT22;28709;52.030;5.652;2023-02-03T12:41:43;10.30;99.90
43089;DHT22;28709;52.030;5.652;2023-02-03T12:44:21;10.30;99.90
43089;DHT22;28709;52.030;5.652;2023-02-03T12:47:05;10.30;99.90
43089;DHT22;28709;52.030;5.652;2023-02-03T12:52:45;10.10;99.90
43089;DHT22;28709;52.030;5.652;2023-02-03T12:55:17;10.00;99.90
43089;DHT22;28709;52.030;5.652;2023-02-03T12:57:55;9.80;99.90
43089;DHT22;28709;52.030;5.652;2023-02-03T13:00:46;9.50;99.90
43089;DHT22;28709;52.030;5.652;2023-02-03T13:03:35;9.40;99.90
43089;DHT22;28709;52.030;5.652;2023-02-03T13:14:56;9.20;99.90
43089;DHT22;28709;52.030;5.652;2023-02-03T13:17:30;9.20;99.90
43089;DHT22;28709;52.030;5.652;2023-02-03T13:20:03;9.20;99.90
43089;DHT22;28709;52.030;5.652;2023-02-03T13:22:30;9.30;99.90
43089;DHT22;28709;52.030;5.652;2023-02-03T13:33:03;9.40;99.90
43089;DHT22;28709;52.030;5.652;2023-02-03T13:41:35;9.50;99.90
43089;DHT22;28709;52.030;5.652;2023-02-03T13:43:56;9.50;99.90
43089;DHT22;28709;52.030;5.652;2023-02-03T13:46:33;9.50;99.90
43089;DHT22;28709;52.030;5.652;2023-02-03T13:49:01;9.50;99.90
43089;DHT22;28709;52.030;5.652;2023-02-03T13:51:33;9.60;99.90
43089;DHT22;28709;52.030;5.652;2023-02-03T13:54:12;9.60;99.90
43089;DHT22;28709;52.030;5.652;2023-02-03T13:56:39;9.60;99.90
43089;DHT22;28709;52.030;5.652;2023-02-03T13:59:26;9.60;99.90
43089;DHT22;28709;52.030;5.652;2023-02-03T14:07:56;9.70;99.90
43089;DHT22;28709;52.030;5.652;2023-02-03T14:10:20;9.80;99.90
43089;DHT22;28709;52.030;5.652;2023-02-03T14:20:38;9.80;99.90
43089;DHT22;28709;52.030;5.652;2023-02-03T14:25:32;9.80;99.90
43089;DHT22;28709;52.030;5.652;2023-02-03T14:28:05;9.80;99.90
43089;DHT22;28709;52.030;5.652;2023-02-03T14:30:32;9.90;99.90
43089;DHT22;28709;52.030;5.652;2023-02-03T14:32:59;9.90;99.90
43089;DHT22;28709;52.030;5.652;2023-02-03T14:35:34;9.90;99.90
43089;DHT22;28709;52.030;5.652;2023-02-03T14:38:07;9.90;99.90
43089;DHT22;28709;52.030;5.652;2023-02-03T14:43:38;9.90;99.90
43089;DHT22;28709;52.030;5.652;2023-02-03T15:07:57;9.80;99.90
43089;DHT22;28709;52.030;5.652;2023-02-03T15:12:51;9.70;99.90
43089;DHT22;28709;52.030;5.652;2023-02-03T15:15:24;9.70;99.90
43089;DHT22;28709;52.030;5.652;2023-02-03T15:17:56;9.70;99.90
43089;DHT22;28709;52.030;5.652;2023-02-03T15:22:59;9.60;99.90
43089;DHT22;28709;52.030;5.652;2023-02-03T15:25:28;9.70;99.90
43089;DHT22;28709;52.030;5.652;2023-02-03T15:28:08;9.60;99.90
43089;DHT22;28709;52.030;5.652;2023-02-03T15:30:34;9.60;99.90
43089;DHT22;28709;52.030;5.652;2023-02-03T15:33:05;9.60;99.90
43089;DHT22;28709;52.030;5.652;2023-02-03T15:35:34;9.60;99.90
43089;DHT22;28709;52.030;5.652;2023-02-03T15:38:06;9.60;99.90
43089;DHT22;28709;52.030;5.652;2023-02-03T15:40:42;9.60;99.90
43089;DHT22;28709;52.030;5.652;2023-02-03T15:46:09;9.60;99.90
43089;DHT22;28709;52.030;5.652;2023-02-03T15:48:51;9.60;99.90
43089;DHT22;28709;52.030;5.652;2023-02-03T15:51:18;9.60;99.90
43089;DHT22;28709;52.030;5.652;2023-02-03T15:54:11;9.60;99.90
43089;DHT22;28709;52.030;5.652;2023-02-03T15:56:44;9.60;99.90
43089;DHT22;28709;52.030;5.652;2023-02-03T15:59:20;9.60;99.90
43089;DHT22;28709;52.030;5.652;2023-02-03T16:01:47;9.60;99.90
43089;DHT22;28709;52.030;5.652;2023-02-03T16:04:12;9.60;99.90
43089;DHT22;28709;52.030;5.652;2023-02-03T16:06:39;9.50;99.90
43089;DHT22;28709;52.030;5.652;2023-02-03T16:09:27;9.50;99.90
43089;DHT22;28709;52.030;5.652;2023-02-03T16:12:15;9.50;99.90
43089;DHT22;28709;52.030;5.652;2023-02-03T16:14:42;9.40;99.90
43089;DHT22;28709;52.030;5.652;2023-02-03T16:17:31;9.40;99.90
43089;DHT22;28709;52.030;5.652;2023-02-03T16:20:30;9.40;99.90
43089;DHT22;28709;52.030;5.652;2023-02-03T16:23:19;9.40;99.90
43089;DHT22;28709;52.030;5.652;2023-02-03T16:26:06;9.40;99.90
43089;DHT22;28709;52.030;5.652;2023-02-03T16:28:32;9.30;99.90
43089;DHT22;28709;52.030;5.652;2023-02-03T16:31:20;9.30;99.90
43089;DHT22;28709;52.030;5.652;2023-02-03T16:34:12;9.30;99.90
43089;DHT22;28709;52.030;5.652;2023-02-03T16:36:57;9.30;99.90
43089;DHT22;28709;52.030;5.652;2023-02-03T16:39:41;9.20;99.90
43089;DHT22;28709;52.030;5.652;2023-02-03T16:42:25;9.20;99.90
43089;DHT22;28709;52.030;5.652;2023-02-03T16:45:15;9.20;99.90
43089;DHT22;28709;52.030;5.652;2023-02-03T16:47:59;9.20;99.90
43089;DHT22;28709;52.030;5.652;2023-02-03T16:50:43;9.10;99.90
43089;DHT22;28709;52.030;5.652;2023-02-03T16:53:30;9.10;99.90
43089;DHT22;28709;52.030;5.652;2023-02-03T16:55:58;9.10;99.90
43089;DHT22;28709;52.030;5.652;2023-02-03T16:58:24;9.10;99.90
43089;DHT22;28709;52.030;5.652;2023-02-03T17:00:51;9.10;99.90
43089;DHT22;28709;52.030;5.652;2023-02-03T17:03:22;9.00;99.90
43089;DHT22;28709;52.030;5.652;2023-02-03T17:05:49;9.00;99.90
43089;DHT22;28709;52.030;5.652;2023-02-03T17:08:16;9.00;99.90
43089;DHT22;28709;52.030;5.652;2023-02-03T17:10:43;8.90;99.90
43089;DHT22;28709;52.030;5.652;2023-02-03T17:13:10;8.90;99.90
43089;DHT22;28709;52.030;5.652;2023-02-03T17:15:47;8.90;99.90
43089;DHT22;28709;52.030;5.652;2023-02-03T17:18:14;8.90;99.90
43089;DHT22;28709;52.030;5.652;2023-02-03T17:20:42;8.80;99.90
43089;DHT22;28709;52.030;5.652;2023-02-03T17:23:08;8.80;99.90
43089;DHT22;28709;52.030;5.652;2023-02-03T17:25:35;8.80;99.90
43089;DHT22;28709;52.030;5.652;2023-02-03T17:28:05;8.80;99.90
43089;DHT22;28709;52.030;5.652;2023-02-03T17:30:32;8.70;99.90
43089;DHT22;28709;52.030;5.652;2023-02-03T17:33:01;8.80;99.90
43089;DHT22;28709;52.030;5.652;2023-02-03T17:35:27;8.80;99.90
43089;DHT22;28709;52.030;5.652;2023-02-03T17:37:53;8.80;99.90
43089;DHT22;28709;52.030;5.652;2023-02-03T17:40:19;8.70;99.90
43089;DHT22;28709;52.030;5.652;2023-02-03T17:42:45;8.70;99.90
43089;DHT22;28709;52.030;5.652;2023-02-03T17:45:11;8.70;99.90
43089;DHT22;28709;52.030;5.652;2023-02-03T17:47:37;8.70;99.90
43089;DHT22;28709;52.030;5.652;2023-02-03T17:50:03;8.70;99.90
43089;DHT22;28709;52.030;5.652;2023-02-03T17:52:29;8.70;99.90
43089;DHT22;28709;52.030;5.652;2023-02-03T17:54:54;8.70;99.90
43089;DHT22;28709;52.030;5.652;2023-02-03T17:57:20;8.70;99.90
43089;DHT22;28709;52.030;5.652;2023-02-03T17:59:46;8.60;99.90
43089;DHT22;28709;52.030;5.652;2023-02-03T18:02:12;8.60;99.90
43089;DHT22;28709;52.030;5.652;2023-02-03T18:04:37;8.60;99.90
43089;DHT22;28709;52.030;5.652;2023-02-03T18:07:03;8.60;99.90
43089;DHT22;28709;52.030;5.652;2023-02-03T18:09:29;8.50;99.90
43089;DHT22;28709;52.030;5.652;2023-02-03T18:11:54;8.50;99.90
43089;DHT22;28709;52.030;5.652;2023-02-03T18:14:20;8.50;99.90
43089;DHT22;28709;52.030;5.652;2023-02-03T18:16:46;8.40;99.90
43089;DHT22;28709;52.030;5.652;2023-02-03T18:19:14;8.50;99.90
43089;DHT22;28709;52.030;5.652;2023-02-03T18:21:41;8.40;99.90
43089;DHT22;28709;52.030;5.652;2023-02-03T18:24:09;8.40;99.90
43089;DHT22;28709;52.030;5.652;2023-02-03T18:26:46;8.40;99.90
43089;DHT22;28709;52.030;5.652;2023-02-03T18:29:12;8.30;99.90
43089;DHT22;28709;52.030;5.652;2023-02-03T18:31:38;8.30;99.90
43089;DHT22;28709;52.030;5.652;2023-02-03T18:34:04;8.30;99.90
43089;DHT22;28709;52.030;5.652;2023-02-03T18:36:30;8.30;99.90
43089;DHT22;28709;52.030;5.652;2023-02-03T18:38:56;8.30;99.90
43089;DHT22;28709;52.030;5.652;2023-02-03T18:41:24;8.20;99.90
43089;DHT22;28709;52.030;5.652;2023-02-03T18:43:50;8.20;99.90
43089;DHT22;28709;52.030;5.652;2023-02-03T18:46:27;8.20;99.90